sensor_id;sensor_type;location;lat;lon;timestamp;pressure;altitude;pressure_sealevel;temperature;humidity
45129;BME280;35512;56.312;101.728;2022-12-16T00:01:18;98649.13;;;-19.76;74.40
45129;BME280;35512;56.312;101.728;2022-12-16T00:03:49;98652.63;;;-19.77;74.66
45129;BME280;35512;56.312;101.728;2022-12-16T00:06:24;98650.16;;;-19.78;74.30
45129;BME280;35512;56.312;101.728;2022-12-16T00:08:53;98646.56;;;-19.76;74.43
45129;BME280;35512;56.312;101.728;2022-12-16T00:11:22;98640.47;;;-19.75;74.53
45129;BME280;35512;56.312;101.728;2022-12-16T00:13:51;98644.59;;;-19.72;74.47
45129;BME280;35512;56.312;101.728;2022-12-16T00:16:21;98649.72;;;-19.72;74.53
45129;BME280;35512;56.312;101.728;2022-12-16T00:18:51;98639.44;;;-19.72;74.57
45129;BME280;35512;56.312;101.728;2022-12-16T00:21:20;98642.00;;;-19.72;74.76
45129;BME280;35512;56.312;101.728;2022-12-16T00:23:49;98634.97;;;-19.70;74.60
45129;BME280;35512;56.312;101.728;2022-12-16T00:26:17;98637.34;;;-19.67;74.61
45129;BME280;35512;56.312;101.728;2022-12-16T00:28:46;98637.34;;;-19.67;74.53
45129;BME280;35512;56.312;101.728;2022-12-16T00:31:15;98638.97;;;-19.66;74.71
45129;BME280;35512;56.312;101.728;2022-12-16T00:33:44;98635.22;;;-19.62;74.59
45129;BME280;35512;56.312;101.728;2022-12-16T00:36:13;98630.66;;;-19.58;74.51
45129;BME280;35512;56.312;101.728;2022-12-16T00:38:42;98623.53;;;-19.54;74.70
45129;BME280;35512;56.312;101.728;2022-12-16T00:41:11;98631.03;;;-19.51;74.41
45129;BME280;35512;56.312;101.728;2022-12-16T00:43:40;98624.69;;;-19.47;74.75
45129;BME280;35512;56.312;101.728;2022-12-16T00:46:09;98627.97;;;-19.45;74.62
45129;BME280;35512;56.312;101.728;2022-12-16T00:48:38;98626.91;;;-19.43;74.70
45129;BME280;35512;56.312;101.728;2022-12-16T00:51:06;98615.94;;;-19.45;74.70
45129;BME280;35512;56.312;101.728;2022-12-16T00:53:35;98618.50;;;-19.45;74.56
45129;BME280;35512;56.312;101.728;2022-12-16T00:56:09;98615.94;;;-19.45;74.68
45129;BME280;35512;56.312;101.728;2022-12-16T00:58:40;98610.78;;;-19.45;74.55
45129;BME280;35512;56.312;101.728;2022-12-16T01:01:09;98611.25;;;-19.40;74.78
45129;BME280;35512;56.312;101.728;2022-12-16T01:03:39;98607.59;;;-19.37;74.86
45129;BME280;35512;56.312;101.728;2022-12-16T01:06:16;98604.09;;;-19.36;74.68
45129;BME280;35512;56.312;101.728;2022-12-16T01:08:45;98603.97;;;-19.34;74.67
45129;BME280;35512;56.312;101.728;2022-12-16T01:11:18;98606.34;;;-19.31;74.67
45129;BME280;35512;56.312;101.728;2022-12-16T01:13:50;98606.09;;;-19.28;74.80
45129;BME280;35512;56.312;101.728;2022-12-16T01:16:22;98607.94;;;-19.30;74.84
45129;BME280;35512;56.312;101.728;2022-12-16T01:18:51;98602.78;;;-19.30;74.58
45129;BME280;35512;56.312;101.728;2022-12-16T01:21:22;98604.56;;;-19.31;74.77
45129;BME280;35512;56.312;101.728;2022-12-16T01:23:51;98600.22;;;-19.30;74.40
45129;BME280;35512;56.312;101.728;2022-12-16T01:26:21;98604.94;;;-19.35;74.51
45129;BME280;35512;56.312;101.728;2022-12-16T01:28:50;98596.38;;;-19.36;74.71
45129;BME280;35512;56.312;101.728;2022-12-16T01:31:22;98582.34;;;-19.43;74.62
45129;BME280;35512;56.312;101.728;2022-12-16T01:33:51;98592.28;;;-19.38;74.58
45129;BME280;35512;56.312;101.728;2022-12-16T01:36:20;98594.84;;;-19.38;74.59
45129;BME280;35512;56.312;101.728;2022-12-16T01:38:49;98592.16;;;-19.37;74.59
45129;BME280;35512;56.312;101.728;2022-12-16T01:41:18;98587.72;;;-19.35;74.84
45129;BME280;35512;56.312;101.728;2022-12-16T01:43:48;98582.31;;;-19.32;74.62
45129;BME280;35512;56.312;101.728;2022-12-16T01:46:22;98584.91;;;-19.32;74.57
45129;BME280;35512;56.312;101.728;2022-12-16T01:49:03;98572.03;;;-19.32;74.50
45129;BME280;35512;56.312;101.728;2022-12-16T01:51:42;98576.25;;;-19.31;74.79
45129;BME280;35512;56.312;101.728;2022-12-16T01:54:25;98562.09;;;-19.36;74.57
45129;BME280;35512;56.312;101.728;2022-12-16T01:57:18;98567.72;;;-19.31;74.64
45129;BME280;35512;56.312;101.728;2022-12-16T01:59:51;98572.50;;;-19.27;74.84
45129;BME280;35512;56.312;101.728;2022-12-16T02:02:22;98573.88;;;-19.23;75.11
45129;BME280;35512;56.312;101.728;2022-12-16T02:04:53;98571.91;;;-19.19;74.71
45129;BME280;35512;56.312;101.728;2022-12-16T02:07:40;98563.81;;;-19.14;74.72
45129;BME280;35512;56.312;101.728;2022-12-16T02:10:09;98567.78;;;-19.10;74.59
45129;BME280;35512;56.312;101.728;2022-12-16T02:19:58;98564.47;;;-19.01;75.01
45129;BME280;35512;56.312;101.728;2022-12-16T02:28:52;98552.78;;;-19.05;74.61
45129;BME280;35512;56.312;101.728;2022-12-16T02:31:50;98553.03;;;-19.08;74.80
45129;BME280;35512;56.312;101.728;2022-12-16T02:34:47;98561.19;;;-19.03;74.64
45129;BME280;35512;56.312;101.728;2022-12-16T02:40:02;98539.97;;;-18.95;74.96
45129;BME280;35512;56.312;101.728;2022-12-16T02:42:48;98546.13;;;-18.86;75.05
45129;BME280;35512;56.312;101.728;2022-12-16T02:45:22;98543.06;;;-18.80;75.12
45129;BME280;35512;56.312;101.728;2022-12-16T02:48:10;98540.09;;;-18.76;74.80
45129;BME280;35512;56.312;101.728;2022-12-16T02:50:43;98548.66;;;-18.75;74.92
45129;BME280;35512;56.312;101.728;2022-12-16T02:53:13;98542.31;;;-18.71;75.04
45129;BME280;35512;56.312;101.728;2022-12-16T02:56:04;98542.97;;;-18.58;75.10
45129;BME280;35512;56.312;101.728;2022-12-16T03:01:23;98528.69;;;-18.41;74.98
45129;BME280;35512;56.312;101.728;2022-12-16T03:04:17;98528.88;;;-18.32;75.13
45129;BME280;35512;56.312;101.728;2022-12-16T03:06:49;98525.78;;;-18.26;75.08
45129;BME280;35512;56.312;101.728;2022-12-16T03:09:25;98527.16;;;-18.22;75.14
45129;BME280;35512;56.312;101.728;2022-12-16T03:11:56;98521.34;;;-18.14;75.04
45129;BME280;35512;56.312;101.728;2022-12-16T03:14:30;98519.63;;;-18.14;75.13
45129;BME280;35512;56.312;101.728;2022-12-16T03:17:01;98512.84;;;-18.05;75.49
45129;BME280;35512;56.312;101.728;2022-12-16T03:20:04;98506.25;;;-17.98;75.22
45129;BME280;35512;56.312;101.728;2022-12-16T03:22:36;98512.78;;;-17.94;75.28
45129;BME280;35512;56.312;101.728;2022-12-16T03:25:06;98511.28;;;-17.96;74.97
45129;BME280;35512;56.312;101.728;2022-12-16T03:30:22;98506.13;;;-17.96;75.25
45129;BME280;35512;56.312;101.728;2022-12-16T03:33:00;98513.59;;;-17.93;75.03
45129;BME280;35512;56.312;101.728;2022-12-16T03:35:37;98511.94;;;-17.94;75.08
45129;BME280;35512;56.312;101.728;2022-12-16T03:38:25;98513.47;;;-17.92;75.22
45129;BME280;35512;56.312;101.728;2022-12-16T03:40:55;98509.38;;;-17.84;75.49
45129;BME280;35512;56.312;101.728;2022-12-16T03:43:26;98517.19;;;-17.75;75.60
45129;BME280;35512;56.312;101.728;2022-12-16T03:46:02;98505.38;;;-17.67;75.73
45129;BME280;35512;56.312;101.728;2022-12-16T03:48:32;98506.34;;;-17.59;75.77
45129;BME280;35512;56.312;101.728;2022-12-16T03:51:02;98511.25;;;-17.56;75.66
45129;BME280;35512;56.312;101.728;2022-12-16T03:53:48;98491.97;;;-17.52;75.55
45129;BME280;35512;56.312;101.728;2022-12-16T03:56:17;98486.69;;;-17.40;75.84
45129;BME280;35512;56.312;101.728;2022-12-16T03:58:46;98485.34;;;-17.25;75.87
45129;BME280;35512;56.312;101.728;2022-12-16T04:01:15;98488.06;;;-17.16;76.14
45129;BME280;35512;56.312;101.728;2022-12-16T04:03:45;98481.53;;;-17.11;75.72
45129;BME280;35512;56.312;101.728;2022-12-16T04:06:14;98488.06;;;-17.07;75.79
45129;BME280;35512;56.312;101.728;2022-12-16T04:08:46;98476.13;;;-17.08;75.52
45129;BME280;35512;56.312;101.728;2022-12-16T04:11:33;98472.97;;;-17.02;75.61
45129;BME280;35512;56.312;101.728;2022-12-16T04:14:20;98461.56;;;-16.99;75.93
45129;BME280;35512;56.312;101.728;2022-12-16T04:17:09;98456.38;;;-16.99;76.18
45129;BME280;35512;56.312;101.728;2022-12-16T04:19:58;98456.25;;;-16.97;75.78
45129;BME280;35512;56.312;101.728;2022-12-16T04:22:46;98458.94;;;-16.89;75.99
45129;BME280;35512;56.312;101.728;2022-12-16T04:25:35;98450.09;;;-16.87;75.72
45129;BME280;35512;56.312;101.728;2022-12-16T04:28:22;98456.88;;;-16.86;75.98
45129;BME280;35512;56.312;101.728;2022-12-16T04:30:51;98447.25;;;-16.93;75.68
45129;BME280;35512;56.312;101.728;2022-12-16T04:33:22;98449.97;;;-16.95;75.71
45129;BME280;35512;56.312;101.728;2022-12-16T04:36:10;98449.19;;;-16.95;75.83
45129;BME280;35512;56.312;101.728;2022-12-16T04:38:57;98453.25;;;-16.93;75.79
45129;BME280;35512;56.312;101.728;2022-12-16T04:41:45;98454.44;;;-16.87;76.14
45129;BME280;35512;56.312;101.728;2022-12-16T04:44:49;98447.22;;;-16.84;75.82
45129;BME280;35512;56.312;101.728;2022-12-16T04:47:37;98450.63;;;-16.73;76.02
45129;BME280;35512;56.312;101.728;2022-12-16T04:50:24;98450.44;;;-16.62;76.48
45129;BME280;35512;56.312;101.728;2022-12-16T04:53:11;98443.22;;;-16.48;76.35
45129;BME280;35512;56.312;101.728;2022-12-16T04:55:59;98444.56;;;-16.44;75.90
45129;BME280;35512;56.312;101.728;2022-12-16T04:58:47;98452.47;;;-16.46;76.32
45129;BME280;35512;56.312;101.728;2022-12-16T05:01:52;98445.00;;;-16.49;76.02
45129;BME280;35512;56.312;101.728;2022-12-16T05:04:40;98444.88;;;-16.57;75.78
45129;BME280;35512;56.312;101.728;2022-12-16T05:07:29;98440.34;;;-16.45;76.36
45129;BME280;35512;56.312;101.728;2022-12-16T05:10:16;98447.50;;;-16.29;76.43
45129;BME280;35512;56.312;101.728;2022-12-16T05:13:08;98447.47;;;-16.20;76.43
45129;BME280;35512;56.312;101.728;2022-12-16T05:15:55;98439.97;;;-16.13;76.40
45129;BME280;35512;56.312;101.728;2022-12-16T05:18:43;98438.88;;;-16.10;76.51
45129;BME280;35512;56.312;101.728;2022-12-16T05:21:30;98440.59;;;-16.01;76.40
45129;BME280;35512;56.312;101.728;2022-12-16T05:24:17;98443.50;;;-16.04;76.36
45129;BME280;35512;56.312;101.728;2022-12-16T05:27:05;98438.88;;;-16.10;76.25
45129;BME280;35512;56.312;101.728;2022-12-16T05:29:52;98436.03;;;-16.17;76.14
45129;BME280;35512;56.312;101.728;2022-12-16T05:32:57;98429.75;;;-16.14;76.41
45129;BME280;35512;56.312;101.728;2022-12-16T05:35:44;98428.50;;;-16.10;76.41
45129;BME280;35512;56.312;101.728;2022-12-16T05:38:31;98424.81;;;-16.08;76.88
45129;BME280;35512;56.312;101.728;2022-12-16T05:41:19;98431.78;;;-16.08;76.35
45129;BME280;35512;56.312;101.728;2022-12-16T05:44:07;98429.09;;;-16.17;76.01
45129;BME280;35512;56.312;101.728;2022-12-16T05:46:54;98425.44;;;-16.24;76.36
45129;BME280;35512;56.312;101.728;2022-12-16T05:49:41;98414.28;;;-16.24;76.34
45129;BME280;35512;56.312;101.728;2022-12-16T05:52:30;98412.50;;;-16.24;76.39
45129;BME280;35512;56.312;101.728;2022-12-16T05:55:17;98411.84;;;-16.26;76.72
45129;BME280;35512;56.312;101.728;2022-12-16T05:58:04;98415.63;;;-16.20;76.90
45129;BME280;35512;56.312;101.728;2022-12-16T06:00:52;98407.97;;;-16.12;76.75
45129;BME280;35512;56.312;101.728;2022-12-16T06:03:40;98412.53;;;-16.06;76.88
45129;BME280;35512;56.312;101.728;2022-12-16T06:06:28;98403.03;;;-16.05;76.66
45129;BME280;35512;56.312;101.728;2022-12-16T06:09:15;98396.38;;;-16.08;76.54
45129;BME280;35512;56.312;101.728;2022-12-16T06:12:23;98390.13;;;-16.15;76.35
45129;BME280;35512;56.312;101.728;2022-12-16T06:15:11;98386.34;;;-16.21;76.59
45129;BME280;35512;56.312;101.728;2022-12-16T06:17:58;98383.47;;;-16.18;76.45
45129;BME280;35512;56.312;101.728;2022-12-16T06:20:46;98368.34;;;-16.12;76.56
45129;BME280;35512;56.312;101.728;2022-12-16T06:23:35;98378.53;;;-16.11;76.82
45129;BME280;35512;56.312;101.728;2022-12-16T06:26:22;98358.94;;;-16.13;76.54
45129;BME280;35512;56.312;101.728;2022-12-16T06:29:09;98361.22;;;-16.10;76.57
45129;BME280;35512;56.312;101.728;2022-12-16T06:31:57;98355.50;;;-16.14;76.53
45129;BME280;35512;56.312;101.728;2022-12-16T06:34:44;98360.75;;;-16.24;76.37
45129;BME280;35512;56.312;101.728;2022-12-16T06:37:32;98350.13;;;-16.21;76.61
45129;BME280;35512;56.312;101.728;2022-12-16T06:40:19;98352.13;;;-16.14;76.62
45129;BME280;35512;56.312;101.728;2022-12-16T06:43:07;98346.81;;;-16.13;76.83
45129;BME280;35512;56.312;101.728;2022-12-16T06:45:54;98353.16;;;-16.07;76.85
45129;BME280;35512;56.312;101.728;2022-12-16T06:48:42;98356.59;;;-16.07;76.49
45129;BME280;35512;56.312;101.728;2022-12-16T06:51:29;98346.00;;;-16.13;76.65
45129;BME280;35512;56.312;101.728;2022-12-16T06:54:18;98347.91;;;-16.16;76.66
45129;BME280;35512;56.312;101.728;2022-12-16T06:57:05;98335.66;;;-16.13;76.76
45129;BME280;35512;56.312;101.728;2022-12-16T06:59:53;98342.56;;;-16.14;76.97
45129;BME280;35512;56.312;101.728;2022-12-16T07:02:41;98345.31;;;-16.16;76.70
45129;BME280;35512;56.312;101.728;2022-12-16T07:05:28;98338.81;;;-16.20;76.89
45129;BME280;35512;56.312;101.728;2022-12-16T07:08:15;98340.72;;;-16.22;76.95
45129;BME280;35512;56.312;101.728;2022-12-16T07:11:03;98346.84;;;-16.23;76.78
45129;BME280;35512;56.312;101.728;2022-12-16T07:13:50;98337.31;;;-16.22;76.80
45129;BME280;35512;56.312;101.728;2022-12-16T07:16:38;98347.81;;;-16.24;76.66
45129;BME280;35512;56.312;101.728;2022-12-16T07:19:25;98351.22;;;-16.23;77.34
45129;BME280;35512;56.312;101.728;2022-12-16T07:22:13;98358.00;;;-16.22;76.99
45129;BME280;35512;56.312;101.728;2022-12-16T07:25:00;98355.56;;;-16.24;76.73
45129;BME280;35512;56.312;101.728;2022-12-16T07:27:48;98368.66;;;-16.25;77.07
45129;BME280;35512;56.312;101.728;2022-12-16T07:30:42;98370.44;;;-16.26;76.87
45129;BME280;35512;56.312;101.728;2022-12-16T07:33:30;98371.38;;;-16.27;76.87
45129;BME280;35512;56.312;101.728;2022-12-16T07:36:17;98371.38;;;-16.27;77.06
45129;BME280;35512;56.312;101.728;2022-12-16T07:39:05;98363.63;;;-16.27;76.99
45129;BME280;35512;56.312;101.728;2022-12-16T07:41:53;98369.91;;;-16.29;77.03
45129;BME280;35512;56.312;101.728;2022-12-16T07:44:40;98377.81;;;-16.31;76.70
45129;BME280;35512;56.312;101.728;2022-12-16T07:47:27;98374.13;;;-16.28;76.73
45129;BME280;35512;56.312;101.728;2022-12-16T07:50:15;98379.00;;;-16.25;77.10
45129;BME280;35512;56.312;101.728;2022-12-16T07:53:02;98365.91;;;-16.24;76.87
45129;BME280;35512;56.312;101.728;2022-12-16T07:55:56;98376.56;;;-16.27;77.03
45129;BME280;35512;56.312;101.728;2022-12-16T07:58:43;98371.94;;;-16.23;76.60
45129;BME280;35512;56.312;101.728;2022-12-16T08:01:31;98378.47;;;-16.29;76.55
45129;BME280;35512;56.312;101.728;2022-12-16T08:04:22;98377.28;;;-16.35;76.74
45129;BME280;35512;56.312;101.728;2022-12-16T08:07:09;98377.56;;;-16.38;77.00
45129;BME280;35512;56.312;101.728;2022-12-16T08:09:57;98380.00;;;-16.36;76.73
45129;BME280;35512;56.312;101.728;2022-12-16T08:12:44;98372.25;;;-16.36;76.64
45129;BME280;35512;56.312;101.728;2022-12-16T08:15:32;98369.00;;;-16.38;76.67
45129;BME280;35512;56.312;101.728;2022-12-16T08:18:20;98372.38;;;-16.38;76.72
45129;BME280;35512;56.312;101.728;2022-12-16T08:21:07;98361.00;;;-16.45;76.83
45129;BME280;35512;56.312;101.728;2022-12-16T08:23:55;98370.59;;;-16.37;76.78
45129;BME280;35512;56.312;101.728;2022-12-16T08:26:42;98369.81;;;-16.38;76.79
45129;BME280;35512;56.312;101.728;2022-12-16T08:29:29;98363.00;;;-16.39;76.69
45129;BME280;35512;56.312;101.728;2022-12-16T08:32:17;98362.19;;;-16.39;76.70
45129;BME280;35512;56.312;101.728;2022-12-16T08:35:05;98357.81;;;-16.39;76.81
45129;BME280;35512;56.312;101.728;2022-12-16T08:37:55;98352.94;;;-16.42;76.62
45129;BME280;35512;56.312;101.728;2022-12-16T08:40:44;98364.38;;;-16.44;77.15
45129;BME280;35512;56.312;101.728;2022-12-16T08:43:33;98371.19;;;-16.43;76.94
45129;BME280;35512;56.312;101.728;2022-12-16T08:46:21;98362.34;;;-16.41;76.72
45129;BME280;35512;56.312;101.728;2022-12-16T08:49:09;98362.47;;;-16.42;76.67
45129;BME280;35512;56.312;101.728;2022-12-16T08:51:56;98370.50;;;-16.45;76.69
45129;BME280;35512;56.312;101.728;2022-12-16T08:54:43;98369.56;;;-16.44;76.77
45129;BME280;35512;56.312;101.728;2022-12-16T08:57:31;98389.28;;;-16.43;76.80
45129;BME280;35512;56.312;101.728;2022-12-16T09:00:18;98388.34;;;-16.42;76.61
45129;BME280;35512;56.312;101.728;2022-12-16T09:03:06;98385.75;;;-16.42;76.96
45129;BME280;35512;56.312;101.728;2022-12-16T09:05:57;98374.31;;;-16.50;76.90
45129;BME280;35512;56.312;101.728;2022-12-16T09:08:45;98380.03;;;-16.46;76.95
45129;BME280;35512;56.312;101.728;2022-12-16T09:11:32;98387.50;;;-16.43;76.92
45129;BME280;35512;56.312;101.728;2022-12-16T09:14:20;98393.53;;;-16.42;76.67
45129;BME280;35512;56.312;101.728;2022-12-16T09:17:07;98386.72;;;-16.43;76.61
45129;BME280;35512;56.312;101.728;2022-12-16T09:19:54;98389.94;;;-16.41;76.73
45129;BME280;35512;56.312;101.728;2022-12-16T09:22:42;98389.44;;;-16.45;76.58
45129;BME280;35512;56.312;101.728;2022-12-16T09:25:29;98385.06;;;-16.44;76.71
45129;BME280;35512;56.312;101.728;2022-12-16T09:28:17;98386.84;;;-16.45;76.96
45129;BME280;35512;56.312;101.728;2022-12-16T09:31:05;98391.75;;;-16.42;76.82
45129;BME280;35512;56.312;101.728;2022-12-16T09:33:52;98388.19;;;-16.41;76.77
45129;BME280;35512;56.312;101.728;2022-12-16T09:36:40;98390.78;;;-16.41;76.94
45129;BME280;35512;56.312;101.728;2022-12-16T09:39:27;98373.66;;;-16.52;76.70
45129;BME280;35512;56.312;101.728;2022-12-16T09:46:15;98400.44;;;-16.43;76.72
45129;BME280;35512;56.312;101.728;2022-12-16T09:49:31;98399.66;;;-16.43;76.63
45129;BME280;35512;56.312;101.728;2022-12-16T09:52:23;98405.47;;;-16.41;76.66
45129;BME280;35512;56.312;101.728;2022-12-16T09:55:21;98401.28;;;-16.42;76.96
45129;BME280;35512;56.312;101.728;2022-12-16T09:58:11;98403.31;;;-16.46;76.71
45129;BME280;35512;56.312;101.728;2022-12-16T10:01:00;98407.09;;;-16.40;76.92
45129;BME280;35512;56.312;101.728;2022-12-16T10:03:49;98407.09;;;-16.40;76.76
45129;BME280;35512;56.312;101.728;2022-12-16T10:12:37;98408.22;;;-16.43;76.84
45129;BME280;35512;56.312;101.728;2022-12-16T10:27:48;98400.69;;;-16.36;76.88
45129;BME280;35512;56.312;101.728;2022-12-16T10:30:55;98413.63;;;-16.36;76.83
45129;BME280;35512;56.312;101.728;2022-12-16T10:33:45;98416.22;;;-16.36;76.82
45129;BME280;35512;56.312;101.728;2022-12-16T10:36:35;98420.28;;;-16.34;77.15
45129;BME280;35512;56.312;101.728;2022-12-16T10:39:43;98417.56;;;-16.32;76.65
45129;BME280;35512;56.312;101.728;2022-12-16T10:42:39;98416.75;;;-16.33;76.73
45129;BME280;35512;56.312;101.728;2022-12-16T10:45:51;98421.25;;;-16.35;76.83
45129;BME280;35512;56.312;101.728;2022-12-16T10:48:40;98420.44;;;-16.35;77.12
45129;BME280;35512;56.312;101.728;2022-12-16T10:51:28;98413.63;;;-16.36;77.11
45129;BME280;35512;56.312;101.728;2022-12-16T10:54:45;98416.91;;;-16.34;77.03
45129;BME280;35512;56.312;101.728;2022-12-16T10:57:57;98418.50;;;-16.33;76.86
45129;BME280;35512;56.312;101.728;2022-12-16T11:03:37;98421.09;;;-16.33;77.08
45129;BME280;35512;56.312;101.728;2022-12-16T11:06:39;98419.50;;;-16.34;77.30
45129;BME280;35512;56.312;101.728;2022-12-16T11:09:31;98411.72;;;-16.34;76.83
45129;BME280;35512;56.312;101.728;2022-12-16T11:12:25;98417.72;;;-16.34;76.85
45129;BME280;35512;56.312;101.728;2022-12-16T11:15:30;98418.25;;;-16.30;77.24
45129;BME280;35512;56.312;101.728;2022-12-16T11:18:20;98419.19;;;-16.31;77.04
45129;BME280;35512;56.312;101.728;2022-12-16T11:21:11;98413.06;;;-16.30;76.73
45129;BME280;35512;56.312;101.728;2022-12-16T11:24:11;98414.69;;;-16.29;76.93
45129;BME280;35512;56.312;101.728;2022-12-16T11:27:01;98420.94;;;-16.22;76.85
45129;BME280;35512;56.312;101.728;2022-12-16T11:29:51;98412.88;;;-16.19;77.12
45129;BME280;35512;56.312;101.728;2022-12-16T11:32:52;98418.75;;;-16.17;76.85
45129;BME280;35512;56.312;101.728;2022-12-16T11:35:43;98413.44;;;-16.15;77.21
45129;BME280;35512;56.312;101.728;2022-12-16T11:38:47;98415.03;;;-16.14;76.92
45129;BME280;35512;56.312;101.728;2022-12-16T11:41:39;98409.59;;;-16.11;77.09
45129;BME280;35512;56.312;101.728;2022-12-16T11:44:29;98403.44;;;-16.10;76.88
45129;BME280;35512;56.312;101.728;2022-12-16T11:50:26;98426.31;;;-16.05;77.52
45129;BME280;35512;56.312;101.728;2022-12-16T11:53:55;98412.44;;;-16.04;77.11
45129;BME280;35512;56.312;101.728;2022-12-16T11:56:43;98423.59;;;-16.04;77.27
45129;BME280;35512;56.312;101.728;2022-12-16T11:59:48;98412.28;;;-16.03;77.45
45129;BME280;35512;56.312;101.728;2022-12-16T12:02:55;98412.28;;;-16.03;77.30
45129;BME280;35512;56.312;101.728;2022-12-16T12:08:56;98424.13;;;-16.00;76.90
45129;BME280;35512;56.312;101.728;2022-12-16T12:21:22;98402.03;;;-15.94;77.43
45129;BME280;35512;56.312;101.728;2022-12-16T12:27:12;98398.59;;;-15.95;77.19
45129;BME280;35512;56.312;101.728;2022-12-16T12:30:10;98398.91;;;-15.98;76.92
45129;BME280;35512;56.312;101.728;2022-12-16T12:38:59;98403.41;;;-16.00;77.36
45129;BME280;35512;56.312;101.728;2022-12-16T12:47:58;98382.41;;;-15.97;77.15
45129;BME280;35512;56.312;101.728;2022-12-16T12:54:13;98384.63;;;-16.02;77.00
45129;BME280;35512;56.312;101.728;2022-12-16T12:57:03;98391.28;;;-16.00;76.83
45129;BME280;35512;56.312;101.728;2022-12-16T12:59:58;98385.16;;;-15.99;76.89
45129;BME280;35512;56.312;101.728;2022-12-16T13:05:57;98395.22;;;-15.95;77.25
45129;BME280;35512;56.312;101.728;2022-12-16T13:11:36;98390.56;;;-15.92;77.22
45129;BME280;35512;56.312;101.728;2022-12-16T13:17:22;98390.25;;;-15.89;77.45
45129;BME280;35512;56.312;101.728;2022-12-16T13:23:47;98391.91;;;-15.88;77.38
45129;BME280;35512;56.312;101.728;2022-12-16T13:27:00;98382.06;;;-15.84;77.06
45129;BME280;35512;56.312;101.728;2022-12-16T13:33:00;98375.78;;;-15.82;77.56
45129;BME280;35512;56.312;101.728;2022-12-16T13:35:57;98378.38;;;-15.82;77.35
45129;BME280;35512;56.312;101.728;2022-12-16T13:38:49;98376.28;;;-15.78;77.11
45129;BME280;35512;56.312;101.728;2022-12-16T13:47:32;98365.91;;;-15.78;76.97
45129;BME280;35512;56.312;101.728;2022-12-16T13:53:30;98370.78;;;-15.75;77.47
45129;BME280;35512;56.312;101.728;2022-12-16T13:56:24;98371.63;;;-15.74;77.43
45129;BME280;35512;56.312;101.728;2022-12-16T13:59:31;98367.25;;;-15.74;77.26
45129;BME280;35512;56.312;101.728;2022-12-16T14:02:27;98373.22;;;-15.73;77.16
45129;BME280;35512;56.312;101.728;2022-12-16T14:05:22;98370.66;;;-15.73;77.16
45129;BME280;35512;56.312;101.728;2022-12-16T14:08:19;98377.47;;;-15.72;77.24
45129;BME280;35512;56.312;101.728;2022-12-16T14:11:11;98379.09;;;-15.71;77.00
45129;BME280;35512;56.312;101.728;2022-12-16T14:14:22;98370.50;;;-15.72;77.35
45129;BME280;35512;56.312;101.728;2022-12-16T14:17:23;98373.09;;;-15.72;77.20
45129;BME280;35512;56.312;101.728;2022-12-16T14:20:24;98373.69;;;-15.78;77.16
45129;BME280;35512;56.312;101.728;2022-12-16T14:26:26;98372.59;;;-15.75;77.11
45129;BME280;35512;56.312;101.728;2022-12-16T14:29:28;98370.16;;;-15.77;77.36
45129;BME280;35512;56.312;101.728;2022-12-16T14:32:31;98367.84;;;-15.80;77.19
45129;BME280;35512;56.312;101.728;2022-12-16T14:35:22;98363.81;;;-15.83;77.11
45129;BME280;35512;56.312;101.728;2022-12-16T14:38:29;98368.84;;;-15.81;77.11
45129;BME280;35512;56.312;101.728;2022-12-16T14:41:20;98366.72;;;-15.77;77.35
45129;BME280;35512;56.312;101.728;2022-12-16T14:44:22;98366.44;;;-15.74;77.19
45129;BME280;35512;56.312;101.728;2022-12-16T14:47:20;98363.03;;;-15.75;77.10
45129;BME280;35512;56.312;101.728;2022-12-16T14:50:19;98356.22;;;-15.76;77.50
45129;BME280;35512;56.312;101.728;2022-12-16T14:56:22;98361.53;;;-15.77;77.40
45129;BME280;35512;56.312;101.728;2022-12-16T14:59:18;98351.66;;;-15.82;77.01
45129;BME280;35512;56.312;101.728;2022-12-16T15:02:18;98353.72;;;-15.86;77.20
45129;BME280;35512;56.312;101.728;2022-12-16T15:05:12;98352.53;;;-15.91;77.26
45129;BME280;35512;56.312;101.728;2022-12-16T15:08:00;98343.28;;;-15.94;77.07
45129;BME280;35512;56.312;101.728;2022-12-16T15:10:47;98337.47;;;-15.96;77.18
45129;BME280;35512;56.312;101.728;2022-12-16T15:13:35;98328.63;;;-16.03;77.32
45129;BME280;35512;56.312;101.728;2022-12-16T15:16:32;98337.59;;;-15.97;76.99
45129;BME280;35512;56.312;101.728;2022-12-16T15:19:24;98338.25;;;-15.95;77.16
45129;BME280;35512;56.312;101.728;2022-12-16T15:22:15;98327.44;;;-15.91;77.15
45129;BME280;35512;56.312;101.728;2022-12-16T15:25:03;98316.16;;;-15.90;77.22
45129;BME280;35512;56.312;101.728;2022-12-16T15:27:55;98322.50;;;-15.84;77.29
45129;BME280;35512;56.312;101.728;2022-12-16T15:30:45;98316.91;;;-15.79;77.14
45129;BME280;35512;56.312;101.728;2022-12-16T15:33:37;98321.59;;;-15.75;77.33
45129;BME280;35512;56.312;101.728;2022-12-16T15:36:33;98307.53;;;-15.72;77.19
45129;BME280;35512;56.312;101.728;2022-12-16T15:39:36;98306.28;;;-15.68;77.45
45129;BME280;35512;56.312;101.728;2022-12-16T15:42:29;98298.22;;;-15.65;77.25
45129;BME280;35512;56.312;101.728;2022-12-16T15:45:24;98292.75;;;-15.62;77.23
45129;BME280;35512;56.312;101.728;2022-12-16T15:48:33;98295.19;;;-15.60;77.21
45129;BME280;35512;56.312;101.728;2022-12-16T15:51:30;98295.03;;;-15.59;77.25
45129;BME280;35512;56.312;101.728;2022-12-16T15:54:18;98293.25;;;-15.58;77.35
45129;BME280;35512;56.312;101.728;2022-12-16T15:57:29;98283.34;;;-15.63;77.29
45129;BME280;35512;56.312;101.728;2022-12-16T16:03:27;98272.56;;;-15.76;77.16